Camooweal, Australia
Current Conditions -  °F | °C
As of 12:00 AM on Thursday 27 Nov 2014 (Local Time) from YBMA Reporting Station
Clear Clear  
Wind Chill: 86°   Ceiling: Unl
Heat Index: 86°   Visibility: 6mi
Dew Point: 59°   Wind: 7mph
Humidity: 40%   Direction: 200°SSW
Pressure: 29.83"   Gusts: NA
Location:  19.92°S, 138.12°E
Report Text: YBMA 261400Z AUTO 20006KT 9999 // NCD 30/15 Q1010
Loading
Personal Weather Stations






























Interactive Weather Map New forecast layout! Learn more

10-Day Weather Forecast

Advertisements
Track Severe Weather on mobile